createdAt,value
2019-05-20T00:00:55.109Z,7.53
2019-05-20T00:03:27.852Z,6.60
2019-05-20T00:05:58.726Z,5.17
2019-05-20T00:08:29.476Z,4.77
2019-05-20T00:11:00.378Z,8.03
2019-05-20T00:13:31.073Z,4.40
2019-05-20T00:16:01.599Z,10.73
2019-05-20T00:18:32.449Z,9.73
2019-05-20T00:21:04.498Z,6.80
2019-05-20T00:23:35.142Z,4.63
2019-05-20T00:26:08.097Z,8.63
2019-05-20T00:28:40.254Z,4.97
2019-05-20T00:31:10.840Z,3.33
2019-05-20T00:33:41.588Z,6.33
2019-05-20T00:36:12.203Z,7.87
2019-05-20T00:38:43.032Z,6.50
2019-05-20T00:41:13.608Z,2.73
2019-05-20T00:43:44.286Z,6.23
2019-05-20T00:46:14.883Z,2.53
2019-05-20T00:48:46.594Z,5.40
2019-05-20T00:51:20.196Z,5.20
2019-05-20T00:53:50.935Z,6.03
2019-05-20T00:56:21.547Z,4.60
2019-05-20T00:58:52.059Z,3.70
2019-05-20T01:01:22.663Z,6.90
2019-05-20T01:03:54.880Z,4.53
2019-05-20T01:06:25.700Z,4.07
2019-05-20T01:08:56.278Z,6.40
2019-05-20T01:11:27.306Z,5.00
2019-05-20T01:13:58.327Z,3.93
2019-05-20T01:16:29.048Z,10.90
2019-05-20T01:18:59.797Z,10.00
2019-05-20T01:21:32.505Z,6.97
2019-05-20T01:24:03.269Z,7.97
2019-05-20T01:26:37.406Z,4.57
2019-05-20T01:29:08.061Z,8.10
2019-05-20T01:31:39.004Z,6.00
2019-05-20T01:34:10.103Z,3.77
2019-05-20T01:36:40.768Z,9.43
2019-05-20T01:39:11.596Z,5.50
2019-05-20T01:41:44.115Z,7.90
2019-05-20T01:44:18.771Z,4.10
2019-05-20T01:46:49.784Z,8.10
2019-05-20T01:49:22.314Z,12.53
2019-05-20T01:51:56.167Z,5.47
2019-05-20T01:54:29.910Z,11.13
2019-05-20T01:57:03.167Z,3.03
2019-05-20T01:59:33.876Z,8.10
2019-05-20T02:02:04.926Z,5.80
2019-05-20T02:04:36.407Z,7.23
2019-05-20T02:07:07.434Z,7.70
2019-05-20T02:09:38.454Z,7.30
2019-05-20T02:12:09.330Z,8.90
2019-05-20T02:14:50.697Z,11.07
2019-05-20T02:17:23.236Z,8.20
2019-05-20T02:19:55.497Z,19.60
2019-05-20T02:22:26.335Z,18.00
2019-05-20T02:25:00.421Z,11.10
2019-05-20T02:27:31.005Z,13.80
2019-05-20T02:30:01.720Z,16.30
2019-05-20T02:32:34.611Z,11.77
2019-05-20T02:35:09.542Z,12.90
2019-05-20T02:37:40.301Z,10.33
2019-05-20T02:40:11.973Z,14.37
2019-05-20T02:42:42.771Z,12.77
2019-05-20T02:45:18.244Z,7.67
2019-05-20T02:47:50.447Z,14.97
2019-05-20T02:50:22.561Z,10.53
2019-05-20T02:52:53.386Z,12.27
2019-05-20T02:55:26.908Z,9.17
2019-05-20T02:57:57.750Z,6.87
2019-05-20T03:00:28.398Z,7.47
2019-05-20T03:02:59.278Z,14.30
2019-05-20T03:05:29.926Z,10.23
2019-05-20T03:08:02.214Z,9.30
2019-05-20T03:10:35.835Z,8.20
2019-05-20T03:13:06.604Z,11.20
2019-05-20T03:15:39.496Z,13.43
2019-05-20T03:18:10.342Z,11.47
2019-05-20T03:20:41.057Z,11.77
2019-05-20T03:23:11.670Z,10.50
2019-05-20T03:25:42.219Z,9.07
2019-05-20T03:28:12.839Z,12.20
2019-05-20T03:30:44.337Z,10.93
2019-05-20T03:33:15.086Z,11.20
2019-05-20T03:35:47.214Z,9.03
2019-05-20T03:38:19.025Z,12.47
2019-05-20T03:40:51.925Z,10.37
2019-05-20T03:43:22.589Z,11.00
2019-05-20T03:45:53.318Z,12.50
2019-05-20T03:48:25.508Z,6.40
2019-05-20T03:50:59.246Z,7.23
2019-05-20T03:53:32.865Z,12.17
2019-05-20T03:56:03.572Z,10.30
2019-05-20T03:58:35.677Z,8.50
2019-05-20T04:01:06.250Z,11.50
2019-05-20T04:03:38.395Z,8.67
2019-05-20T04:06:09.027Z,9.00
2019-05-20T04:08:39.859Z,9.40
2019-05-20T04:11:10.445Z,9.30
2019-05-20T04:13:41.347Z,6.80
2019-05-20T04:16:13.607Z,10.93
2019-05-20T04:18:46.845Z,11.97
2019-05-20T04:21:18.112Z,11.20
2019-05-20T04:23:53.592Z,11.80
2019-05-20T04:26:26.525Z,15.17
2019-05-20T04:28:58.885Z,19.33
2019-05-20T04:31:33.498Z,21.00
2019-05-20T04:34:04.282Z,21.67
2019-05-20T04:36:36.438Z,26.57
2019-05-20T04:39:07.549Z,41.47
2019-05-20T04:41:38.167Z,37.53
2019-05-20T04:44:10.673Z,37.60
2019-05-20T04:46:48.215Z,33.60
2019-05-20T04:49:24.930Z,38.70
2019-05-20T04:51:55.717Z,75.57
2019-05-20T04:54:34.203Z,26.30
2019-05-20T04:57:06.538Z,31.87
2019-05-20T04:59:40.284Z,41.13
2019-05-20T05:02:10.906Z,39.43
2019-05-20T05:04:43.075Z,42.77
2019-05-20T05:07:13.832Z,28.03
2019-05-20T05:09:44.635Z,30.23
2019-05-20T05:12:16.999Z,49.23
2019-05-20T05:14:48.126Z,66.70
2019-05-20T05:17:18.907Z,57.10
2019-05-20T05:19:49.664Z,54.97
2019-05-20T05:22:20.472Z,52.43
2019-05-20T05:24:51.089Z,51.13
2019-05-20T05:27:23.080Z,45.10
2019-05-20T05:29:53.687Z,37.07
2019-05-20T05:32:43.913Z,40.67
2019-05-20T05:35:17.565Z,32.10
2019-05-20T05:37:48.658Z,59.18
2019-05-20T05:40:21.846Z,55.43
2019-05-20T05:42:53.073Z,41.37
2019-05-20T05:45:32.011Z,51.07
2019-05-20T05:48:03.462Z,43.83
2019-05-20T05:50:36.399Z,47.03
2019-05-20T05:53:06.988Z,69.97
2019-05-20T05:55:39.257Z,60.37
2019-05-20T05:58:09.892Z,33.20
2019-05-20T06:00:40.525Z,37.37
2019-05-20T06:03:13.331Z,40.63
2019-05-20T06:05:43.626Z,43.40
2019-05-20T06:08:15.390Z,60.20
2019-05-20T06:10:47.019Z,33.63
2019-05-20T06:13:19.195Z,27.60
2019-05-20T06:15:49.799Z,34.10
2019-05-20T06:18:20.404Z,32.53
2019-05-20T06:20:51.155Z,28.63
2019-05-20T06:23:21.847Z,32.73
2019-05-20T06:25:52.986Z,32.08
2019-05-20T06:28:23.608Z,22.17
2019-05-20T06:30:54.201Z,29.30
2019-05-20T06:33:25.455Z,25.68
2019-05-20T06:35:56.784Z,24.67
2019-05-20T06:38:35.464Z,18.63
2019-05-20T06:41:09.372Z,31.53
2019-05-20T06:43:41.703Z,26.57
2019-05-20T06:46:12.325Z,22.30
2019-05-20T06:48:42.930Z,33.97
2019-05-20T06:51:14.929Z,26.03
2019-05-20T06:53:47.212Z,24.53
2019-05-20T06:56:20.243Z,15.20
2019-05-20T06:58:52.326Z,11.23
2019-05-20T07:01:23.097Z,13.03
2019-05-20T07:03:53.919Z,8.30
2019-05-20T07:06:25.002Z,8.33
2019-05-20T07:08:55.677Z,10.03
2019-05-20T07:11:26.263Z,8.70
2019-05-20T07:13:56.961Z,5.97
2019-05-20T07:16:27.675Z,10.57
2019-05-20T07:18:58.333Z,10.27
2019-05-20T07:21:28.998Z,14.70
2019-05-20T07:23:59.578Z,10.43
2019-05-20T07:26:30.163Z,10.57
2019-05-20T07:29:00.880Z,5.93
2019-05-20T07:31:31.495Z,5.83
2019-05-20T07:34:02.205Z,7.73
2019-05-20T07:36:32.920Z,13.70
2019-05-20T07:39:04.190Z,20.47
2019-05-20T07:41:34.864Z,11.00
2019-05-20T07:44:05.754Z,7.23
2019-05-20T07:46:36.507Z,10.80
2019-05-20T07:49:07.732Z,14.00
2019-05-20T07:51:40.286Z,16.07
2019-05-20T07:54:11.598Z,13.30
2019-05-20T07:56:45.391Z,7.90
2019-05-20T07:59:18.123Z,7.97
2019-05-20T08:01:48.865Z,23.57
2019-05-20T08:04:19.501Z,13.53
2019-05-20T08:06:50.170Z,12.83
2019-05-20T08:09:20.913Z,8.77
2019-05-20T08:11:51.800Z,7.67
2019-05-20T08:14:25.189Z,7.73
2019-05-20T08:16:55.894Z,10.53
2019-05-20T08:19:26.486Z,16.17
2019-05-20T08:22:00.217Z,6.83
2019-05-20T08:24:30.959Z,7.47
2019-05-20T08:27:01.578Z,5.53
2019-05-20T08:29:32.203Z,5.90
2019-05-20T08:32:02.832Z,5.63
2019-05-20T08:34:33.854Z,9.37
2019-05-20T08:37:07.751Z,5.63
2019-05-20T08:39:42.776Z,6.40
2019-05-20T08:42:15.984Z,15.07
2019-05-20T08:44:49.301Z,11.13
2019-05-20T08:47:20.016Z,5.50
2019-05-20T08:49:50.863Z,7.67
2019-05-20T08:52:24.095Z,12.17
2019-05-20T08:55:00.230Z,6.73
2019-05-20T08:57:30.882Z,5.93
2019-05-20T09:00:01.632Z,6.63
2019-05-20T09:02:32.513Z,6.17
2019-05-20T09:05:03.114Z,9.60
2019-05-20T09:07:37.823Z,14.30
2019-05-20T09:10:09.312Z,4.90
2019-05-20T09:12:39.951Z,7.10
2019-05-20T09:15:11.233Z,5.73
2019-05-20T09:17:41.860Z,4.23
2019-05-20T09:20:13.273Z,9.40
2019-05-20T09:22:43.904Z,9.17
2019-05-20T09:25:18.896Z,12.10
2019-05-20T09:27:49.591Z,9.00
2019-05-20T09:30:20.282Z,7.13
2019-05-20T09:32:51.117Z,5.77
2019-05-20T09:35:21.860Z,9.50
2019-05-20T09:37:52.534Z,5.73
2019-05-20T09:40:44.423Z,15.47
2019-05-20T09:43:15.129Z,5.87
2019-05-20T09:45:46.233Z,8.10
2019-05-20T09:48:19.513Z,8.77
2019-05-20T09:50:50.351Z,5.50
2019-05-20T09:53:21.112Z,5.57
2019-05-20T09:55:53.094Z,8.60
2019-05-20T09:58:24.103Z,9.47
2019-05-20T10:00:54.741Z,7.23
2019-05-20T10:03:25.452Z,7.80
2019-05-20T10:05:59.105Z,12.53
2019-05-20T10:08:39.028Z,7.43
2019-05-20T10:11:03.689Z,10.83
2019-05-20T10:13:34.562Z,7.93
2019-05-20T10:16:05.185Z,6.17
2019-05-20T10:18:39.462Z,7.90
2019-05-20T10:21:11.940Z,6.17
2019-05-20T10:23:42.659Z,5.07
2019-05-20T10:26:17.533Z,6.13
2019-05-20T10:28:48.155Z,8.30
2019-05-20T10:31:20.299Z,7.93
2019-05-20T10:33:51.533Z,6.27
2019-05-20T10:36:22.224Z,6.43
2019-05-20T10:38:59.051Z,6.30
2019-05-20T10:41:29.217Z,6.40
2019-05-20T10:43:59.651Z,5.33
2019-05-20T10:46:31.818Z,5.13
2019-05-20T10:49:02.552Z,8.43
2019-05-20T10:51:33.331Z,6.43
2019-05-20T10:54:04.015Z,7.17
2019-05-20T10:56:34.718Z,8.37
2019-05-20T10:59:05.367Z,8.17
2019-05-20T11:01:36.044Z,14.67
2019-05-20T11:04:08.251Z,6.47
2019-05-20T11:06:39.146Z,7.47
2019-05-20T11:09:14.090Z,10.23
2019-05-20T11:11:46.613Z,10.13
2019-05-20T11:14:17.331Z,10.60
2019-05-20T11:16:47.935Z,8.07
2019-05-20T11:19:18.618Z,12.07
2019-05-20T11:21:51.703Z,9.43
2019-05-20T11:24:22.453Z,12.40
2019-05-20T11:26:54.850Z,9.23
2019-05-20T11:29:25.511Z,12.70
2019-05-20T11:31:56.298Z,11.40
2019-05-20T11:34:26.997Z,10.97
2019-05-20T11:37:01.683Z,9.57
2019-05-20T11:39:34.237Z,13.27
2019-05-20T11:42:06.831Z,13.40
2019-05-20T11:44:48.460Z,5.50
2019-05-20T11:47:21.963Z,5.57
2019-05-20T11:49:52.591Z,3.87
2019-05-20T11:52:23.207Z,11.00
2019-05-20T11:54:55.535Z,6.93
2019-05-20T11:57:26.321Z,4.93
2019-05-20T11:59:56.991Z,5.43
2019-05-20T12:02:27.948Z,7.23
2019-05-20T12:04:58.633Z,5.60
2019-05-20T12:07:31.221Z,6.10
2019-05-20T12:10:01.846Z,6.17
2019-05-20T12:12:32.707Z,11.27
2019-05-20T12:15:05.504Z,7.00
2019-05-20T12:17:36.897Z,7.20
2019-05-20T12:20:11.826Z,8.43
2019-05-20T12:22:41.592Z,9.47
2019-05-20T12:25:15.620Z,10.80
2019-05-20T12:27:46.203Z,8.40
2019-05-20T12:30:19.708Z,7.77
2019-05-20T12:32:50.331Z,5.40
2019-05-20T12:35:20.981Z,13.83
2019-05-20T12:37:51.583Z,14.77
2019-05-20T12:40:22.900Z,11.37
2019-05-20T12:42:53.527Z,9.87
2019-05-20T12:45:25.756Z,13.20
2019-05-20T12:47:58.088Z,8.80
2019-05-20T12:50:28.778Z,9.00
2019-05-20T12:52:59.352Z,8.93
2019-05-20T12:55:29.991Z,6.03
2019-05-20T12:58:00.792Z,4.93
2019-05-20T13:00:31.398Z,6.87
2019-05-20T13:03:02.284Z,9.10
2019-05-20T13:05:32.903Z,13.43
2019-05-20T13:08:06.828Z,8.57
2019-05-20T13:10:37.572Z,7.17
2019-05-20T13:13:09.769Z,6.00
2019-05-20T13:15:40.371Z,6.93
2019-05-20T13:18:11.270Z,8.00
2019-05-20T13:20:42.000Z,4.70
2019-05-20T13:23:14.942Z,9.53
2019-05-20T13:25:46.734Z,8.40
2019-05-20T13:28:20.514Z,12.37
2019-05-20T13:30:51.274Z,7.93
2019-05-20T13:33:22.359Z,11.27
2019-05-20T13:35:54.661Z,5.43
2019-05-20T13:38:25.242Z,7.60
2019-05-20T13:40:55.885Z,3.27
2019-05-20T13:43:26.608Z,3.83
2019-05-20T13:45:59.214Z,4.33
2019-05-20T13:48:29.866Z,5.80
2019-05-20T13:51:01.089Z,5.87
2019-05-20T13:53:32.719Z,5.33
2019-05-20T13:56:05.605Z,3.37
2019-05-20T13:58:35.716Z,7.00
2019-05-20T14:01:09.711Z,12.73
2019-05-20T14:03:50.723Z,6.73
2019-05-20T14:06:21.618Z,5.47
2019-05-20T14:08:52.416Z,9.00
2019-05-20T14:11:34.194Z,2.33
2019-05-20T14:13:57.055Z,3.43
2019-05-20T14:16:30.330Z,6.20
2019-05-20T14:19:01.018Z,9.33
2019-05-20T14:21:33.270Z,8.90
2019-05-20T14:24:05.234Z,6.77
2019-05-20T14:26:36.265Z,5.27
2019-05-20T14:29:06.977Z,7.70
2019-05-20T14:31:38.501Z,5.03
2019-05-20T14:34:09.490Z,5.47
2019-05-20T14:36:40.598Z,6.90
2019-05-20T14:39:11.312Z,8.20
2019-05-20T14:41:43.448Z,7.30
2019-05-20T14:44:18.459Z,10.97
2019-05-20T14:46:49.784Z,4.43
2019-05-20T14:49:20.595Z,6.40
2019-05-20T14:51:55.923Z,5.40
2019-05-20T14:54:27.229Z,5.63
2019-05-20T14:57:02.370Z,8.97
2019-05-20T14:59:40.507Z,8.10
2019-05-20T15:02:11.589Z,8.83
2019-05-20T15:04:42.558Z,5.47
2019-05-20T15:07:13.201Z,5.93
2019-05-20T15:09:45.392Z,8.23
2019-05-20T15:12:19.767Z,8.50
2019-05-20T15:14:54.239Z,8.00
2019-05-20T15:17:26.598Z,11.77
2019-05-20T15:19:57.501Z,6.77
2019-05-20T15:22:29.204Z,9.03
2019-05-20T15:25:01.822Z,6.93
2019-05-20T15:27:34.768Z,5.33
2019-05-20T15:30:10.212Z,9.17
2019-05-20T15:32:40.969Z,9.57
2019-05-20T15:35:13.280Z,6.97
2019-05-20T15:37:43.885Z,10.27
2019-05-20T15:40:18.025Z,9.93
2019-05-20T15:42:48.596Z,8.53
2019-05-20T15:45:19.434Z,10.30
2019-05-20T15:47:50.678Z,11.20
2019-05-20T15:50:22.061Z,7.23
2019-05-20T15:52:52.721Z,7.80
2019-05-20T15:55:27.546Z,9.97
2019-05-20T15:57:58.444Z,12.93
2019-05-20T16:00:29.308Z,5.10
2019-05-20T16:02:59.948Z,9.70
2019-05-20T16:05:32.882Z,12.57
2019-05-20T16:08:04.148Z,7.03
2019-05-20T16:10:35.246Z,5.20
2019-05-20T16:13:05.869Z,10.40
2019-05-20T16:15:37.358Z,6.17
2019-05-20T16:18:08.386Z,8.70
2019-05-20T16:20:45.170Z,4.77
2019-05-20T16:23:16.006Z,8.13
2019-05-20T16:25:50.951Z,6.53
2019-05-20T16:28:24.451Z,8.07
2019-05-20T16:30:55.110Z,10.07
2019-05-20T16:33:26.075Z,11.07
2019-05-20T16:35:56.777Z,10.90
2019-05-20T16:38:31.149Z,8.67
2019-05-20T16:41:01.783Z,13.60
2019-05-20T16:43:32.380Z,10.13
2019-05-20T16:46:03.106Z,9.20
2019-05-20T16:48:37.279Z,9.13
2019-05-20T16:51:07.927Z,6.10
2019-05-20T16:53:40.122Z,12.30
2019-05-20T16:56:12.281Z,10.60
2019-05-20T16:58:43.231Z,13.47
2019-05-20T17:01:15.767Z,7.90
2019-05-20T17:03:46.719Z,9.00
2019-05-20T17:06:19.102Z,8.10
2019-05-20T17:08:56.210Z,9.33
2019-05-20T17:11:30.028Z,5.23
2019-05-20T17:14:00.861Z,7.20
2019-05-20T17:16:35.035Z,7.63
2019-05-20T17:19:06.697Z,5.50
2019-05-20T17:21:39.769Z,12.13
2019-05-20T17:24:12.639Z,6.00
2019-05-20T17:26:43.590Z,6.63
2019-05-20T17:29:16.494Z,10.40
2019-05-20T17:31:47.513Z,9.50
2019-05-20T17:34:18.507Z,8.87
2019-05-20T17:36:49.290Z,11.37
2019-05-20T17:39:19.974Z,7.87
2019-05-20T17:41:50.570Z,12.33
2019-05-20T17:44:21.498Z,10.97
2019-05-20T17:46:52.237Z,8.63
2019-05-20T17:49:22.871Z,8.73
2019-05-20T17:51:53.473Z,8.17
2019-05-20T17:54:25.231Z,6.27
2019-05-20T17:56:57.541Z,6.00
2019-05-20T17:59:31.612Z,8.57
2019-05-20T18:02:02.342Z,12.63
2019-05-20T18:04:33.591Z,8.93
2019-05-20T18:07:05.198Z,10.10
2019-05-20T18:09:39.460Z,11.07
2019-05-20T18:12:10.845Z,12.00
2019-05-20T18:14:42.543Z,6.87
2019-05-20T18:17:16.598Z,10.93
2019-05-20T18:19:48.952Z,8.30
2019-05-20T18:22:19.987Z,10.83
2019-05-20T18:24:52.199Z,11.97
2019-05-20T18:27:23.700Z,16.90
2019-05-20T18:29:56.290Z,7.27
2019-05-20T18:32:27.426Z,14.80
2019-05-20T18:34:58.372Z,6.70
2019-05-20T18:37:29.304Z,9.20
2019-05-20T18:40:12.783Z,8.90
2019-05-20T18:42:33.029Z,6.33
2019-05-20T18:45:06.414Z,9.23
2019-05-20T18:47:37.248Z,15.23
2019-05-20T18:50:09.385Z,11.20
2019-05-20T18:52:40.043Z,7.67
2019-05-20T18:55:11.433Z,7.37
2019-05-20T18:57:42.233Z,8.03
2019-05-20T19:00:14.221Z,7.77
2019-05-20T19:02:45.249Z,13.60
2019-05-20T19:05:17.373Z,14.70
2019-05-20T19:07:49.165Z,19.40
2019-05-20T19:10:20.419Z,20.37
2019-05-20T19:12:51.721Z,30.20
2019-05-20T19:15:23.000Z,28.83
2019-05-20T19:17:55.688Z,34.23
2019-05-20T19:20:26.862Z,36.00
2019-05-20T19:22:57.977Z,34.50
2019-05-20T19:25:37.309Z,25.87
2019-05-20T19:28:01.480Z,21.13
2019-05-20T19:30:32.530Z,8.63
2019-05-20T19:33:04.314Z,12.17
2019-05-20T19:35:35.020Z,20.80
2019-05-20T19:38:06.101Z,11.33
2019-05-20T19:40:36.907Z,6.57
2019-05-20T19:43:08.034Z,6.40
2019-05-20T19:45:39.280Z,8.20
2019-05-20T19:48:10.434Z,9.17
2019-05-20T19:50:41.320Z,8.10
2019-05-20T19:53:12.079Z,6.93
2019-05-20T19:55:44.169Z,8.73
2019-05-20T19:58:15.216Z,11.60
2019-05-20T20:00:46.261Z,13.83
2019-05-20T20:03:17.394Z,13.30
2019-05-20T20:05:48.537Z,12.73
2019-05-20T20:08:19.499Z,12.27
2019-05-20T20:10:50.513Z,9.17
2019-05-20T20:13:23.808Z,10.30
2019-05-20T20:15:54.945Z,7.63
2019-05-20T20:18:25.984Z,18.33
2019-05-20T20:20:57.145Z,9.33
2019-05-20T20:23:29.606Z,8.37
2019-05-20T20:26:02.365Z,9.70
2019-05-20T20:28:33.151Z,12.10
2019-05-20T20:31:04.163Z,11.07
2019-05-20T20:33:35.249Z,9.50
2019-05-20T20:36:06.459Z,9.63
2019-05-20T20:38:39.361Z,14.13
2019-05-20T20:41:10.260Z,6.27
2019-05-20T20:43:41.440Z,11.07
2019-05-20T20:46:12.355Z,9.50
2019-05-20T20:48:43.400Z,10.90
2019-05-20T20:51:14.447Z,11.43
2019-05-20T20:53:45.372Z,9.57
2019-05-20T20:56:24.594Z,8.03
2019-05-20T20:58:52.475Z,10.57
2019-05-20T21:01:23.772Z,13.93
2019-05-20T21:03:54.755Z,11.87
2019-05-20T21:06:29.649Z,25.80
2019-05-20T21:09:00.326Z,7.53
2019-05-20T21:11:31.578Z,6.87
2019-05-20T21:14:04.686Z,13.13
2019-05-20T21:16:37.645Z,9.03
2019-05-20T21:19:08.798Z,9.80
2019-05-20T21:21:39.730Z,10.63
2019-05-20T21:24:12.920Z,9.07
2019-05-20T21:26:44.574Z,9.43
2019-05-20T21:29:15.719Z,11.10
2019-05-20T21:31:46.898Z,15.77
2019-05-20T21:34:31.350Z,15.00
2019-05-20T21:37:02.555Z,8.10
2019-05-20T21:39:33.496Z,15.33
2019-05-20T21:42:04.544Z,8.37
2019-05-20T21:44:37.148Z,9.73
2019-05-20T21:47:08.151Z,7.10
2019-05-20T21:49:39.194Z,7.87
2019-05-20T21:52:10.800Z,23.43
2019-05-20T21:54:42.611Z,13.20
2019-05-20T21:57:18.711Z,9.13
2019-05-20T21:59:51.224Z,10.73
2019-05-20T22:02:26.689Z,12.63
2019-05-20T22:05:03.050Z,9.10
2019-05-20T22:07:35.682Z,9.40
2019-05-20T22:10:08.519Z,12.40
2019-05-20T22:12:42.428Z,12.83
2019-05-20T22:15:15.201Z,9.10
2019-05-20T22:17:47.479Z,8.70
2019-05-20T22:20:21.998Z,9.27
2019-05-20T22:23:06.760Z,6.97
2019-05-20T22:25:38.725Z,8.60
2019-05-20T22:28:12.744Z,8.33
2019-05-20T22:30:42.939Z,13.60
2019-05-20T22:33:17.480Z,6.23
2019-05-20T22:35:49.139Z,9.10
2019-05-20T22:38:21.817Z,7.83
2019-05-20T22:40:55.047Z,11.53
2019-05-20T22:43:25.746Z,12.00
2019-05-20T22:45:57.287Z,6.40
2019-05-20T22:48:29.662Z,9.63
2019-05-20T22:51:00.398Z,9.60
2019-05-20T22:53:31.613Z,13.40
2019-05-20T22:56:05.777Z,9.20
2019-05-20T22:58:38.626Z,12.90
2019-05-20T23:01:09.444Z,9.73
2019-05-20T23:03:54.355Z,8.30
2019-05-20T23:06:13.194Z,13.30
2019-05-20T23:08:44.058Z,12.07
2019-05-20T23:11:15.282Z,14.17
2019-05-20T23:13:50.513Z,8.97
2019-05-20T23:16:23.242Z,8.53
2019-05-20T23:18:54.358Z,11.97
2019-05-20T23:21:25.696Z,7.10
2019-05-20T23:23:56.829Z,11.73
2019-05-20T23:26:27.764Z,9.70
2019-05-20T23:28:58.951Z,12.13
2019-05-20T23:31:31.284Z,9.00
2019-05-20T23:34:12.919Z,9.73
2019-05-20T23:36:40.657Z,8.20
2019-05-20T23:39:11.843Z,9.73
2019-05-20T23:41:51.049Z,12.97
2019-05-20T23:44:22.070Z,9.97
2019-05-20T23:46:56.189Z,14.63
2019-05-20T23:49:27.008Z,12.17
2019-05-20T23:51:58.200Z,8.27
2019-05-20T23:54:30.858Z,9.40
2019-05-20T23:57:01.760Z,14.03
2019-05-20T23:59:32.911Z,9.73
